createdAt,value
2022-09-10T00:03:21.847Z,15.90
2022-09-10T00:08:24.621Z,16.00
2022-09-10T00:13:27.232Z,16.00
2022-09-10T00:18:30.442Z,16.00
2022-09-10T00:23:33.172Z,16.00
2022-09-10T00:28:35.844Z,16.00
2022-09-10T00:33:39.020Z,16.00
2022-09-10T00:38:41.673Z,16.00
2022-09-10T00:43:55.826Z,16.00
2022-09-10T00:49:02.730Z,16.00
2022-09-10T00:54:06.772Z,16.10
2022-09-10T00:59:10.644Z,16.10
2022-09-10T01:04:13.383Z,16.00
2022-09-10T01:09:16.352Z,16.00
2022-09-10T01:14:43.984Z,16.10
2022-09-10T01:20:15.973Z,16.10
2022-09-10T01:25:48.689Z,16.30
2022-09-10T01:30:56.933Z,16.30
2022-09-10T01:36:09.954Z,16.30
2022-09-10T01:41:14.253Z,16.30
2022-09-10T01:46:28.584Z,16.20
2022-09-10T01:51:53.803Z,16.10
2022-09-10T01:57:07.336Z,15.80
2022-09-10T02:02:22.141Z,15.80
2022-09-10T02:07:26.881Z,15.70
2022-09-10T02:12:30.632Z,15.80
2022-09-10T02:17:43.316Z,15.80
2022-09-10T02:22:51.851Z,15.90
2022-09-10T02:27:55.266Z,15.90
2022-09-10T02:32:58.150Z,15.90
2022-09-10T02:38:01.806Z,15.80
2022-09-10T02:43:05.322Z,15.80
2022-09-10T02:48:08.164Z,15.80
2022-09-10T02:53:13.586Z,15.70
2022-09-10T02:58:16.941Z,15.80
2022-09-10T03:03:19.822Z,15.70
2022-09-10T03:08:22.581Z,15.70
2022-09-10T03:13:29.392Z,15.80
2022-09-10T03:18:35.494Z,15.70
2022-09-10T03:23:38.526Z,15.70
2022-09-10T03:28:43.965Z,15.70
2022-09-10T03:33:49.512Z,15.70
2022-09-10T03:38:53.127Z,15.70
2022-09-10T03:43:57.673Z,15.70
2022-09-10T03:49:02.647Z,15.70
2022-09-10T03:54:08.577Z,15.60
2022-09-10T03:59:13.593Z,15.60
2022-09-10T04:04:16.886Z,15.60
2022-09-10T04:09:20.438Z,15.60
2022-09-10T04:14:23.162Z,15.40
2022-09-10T04:19:28.042Z,15.50
2022-09-10T04:24:31.483Z,15.60
2022-09-10T04:29:34.148Z,15.60
2022-09-10T04:34:36.892Z,15.60
2022-09-10T04:39:40.100Z,15.60
2022-09-10T04:44:43.124Z,15.50
2022-09-10T04:49:46.052Z,15.60
2022-09-10T04:54:49.958Z,15.60
2022-09-10T04:59:54.282Z,15.60
2022-09-10T05:04:58.079Z,15.70
2022-09-10T05:10:02.245Z,15.80
2022-09-10T05:15:07.033Z,15.80
2022-09-10T05:20:10.893Z,15.90
2022-09-10T05:25:22.706Z,15.90
2022-09-10T05:30:25.513Z,15.90
2022-09-10T05:35:30.545Z,16.00
2022-09-10T05:40:36.089Z,15.90
2022-09-10T05:45:39.285Z,15.80
2022-09-10T05:50:45.702Z,15.70
2022-09-10T05:55:49.988Z,15.80
2022-09-10T06:00:55.092Z,15.80
2022-09-10T06:05:57.932Z,15.80
2022-09-10T06:11:07.378Z,15.80
2022-09-10T06:16:16.306Z,15.80
2022-09-10T06:21:23.914Z,15.90
2022-09-10T06:26:29.112Z,15.90
2022-09-10T06:31:35.822Z,15.80
2022-09-10T06:36:39.558Z,15.70
2022-09-10T06:41:47.882Z,15.60
2022-09-10T06:48:06.484Z,15.70
2022-09-10T06:52:42.615Z,15.70
2022-09-10T06:57:48.364Z,15.70
2022-09-10T07:02:52.894Z,15.80
2022-09-10T07:07:56.883Z,15.70
2022-09-10T07:13:01.427Z,15.80
2022-09-10T07:18:04.676Z,16.00
2022-09-10T07:23:17.124Z,16.00
2022-09-10T07:28:22.175Z,16.00
2022-09-10T07:33:25.034Z,16.00
2022-09-10T07:38:29.094Z,16.10
2022-09-10T07:43:32.104Z,16.00
2022-09-10T07:48:35.341Z,16.10
2022-09-10T07:53:42.161Z,16.10
2022-09-10T07:58:54.456Z,16.30
2022-09-10T08:03:58.826Z,16.30
2022-09-10T08:09:07.525Z,16.40
2022-09-10T08:14:13.643Z,16.50
2022-09-10T08:19:18.952Z,16.40
2022-09-10T08:24:22.378Z,16.30
2022-09-10T08:29:26.463Z,16.40
2022-09-10T08:34:29.861Z,16.60
2022-09-10T08:39:41.322Z,16.90
2022-09-10T08:45:00.543Z,16.90
2022-09-10T08:50:19.066Z,16.90
2022-09-10T08:55:29.222Z,16.80
2022-09-10T09:00:35.152Z,16.90
2022-09-10T09:05:51.464Z,17.20
2022-09-10T09:11:06.172Z,17.30
2022-09-10T09:16:41.628Z,17.20
2022-09-10T09:21:54.092Z,17.30
2022-09-10T09:27:10.222Z,17.20
2022-09-10T09:32:19.233Z,17.30
2022-09-10T09:37:31.511Z,17.50
2022-09-10T09:42:44.753Z,17.70
2022-09-10T09:47:51.053Z,18.00
2022-09-10T09:52:59.354Z,18.30
2022-09-10T09:58:27.285Z,18.40
2022-09-10T10:03:32.347Z,18.50
2022-09-10T10:08:46.685Z,18.50
2022-09-10T10:13:53.295Z,18.40
2022-09-10T10:18:56.095Z,18.30
2022-09-10T10:23:59.361Z,18.20
2022-09-10T10:29:06.673Z,18.60
2022-09-10T10:34:44.445Z,19.10
2022-09-10T10:39:55.588Z,19.30
2022-09-10T10:45:25.807Z,19.20
2022-09-10T10:51:10.174Z,18.90
2022-09-10T10:56:30.153Z,18.70
2022-09-10T11:01:42.517Z,18.70
2022-09-10T11:06:52.177Z,19.10
2022-09-10T11:12:33.762Z,19.60
2022-09-10T11:17:47.535Z,20.00
2022-09-10T11:23:16.425Z,20.40
2022-09-10T11:28:26.555Z,20.40
2022-09-10T11:33:42.644Z,20.60
2022-09-10T11:39:11.514Z,20.50
2022-09-10T11:45:03.295Z,20.50
2022-09-10T11:50:11.424Z,20.20
2022-09-10T11:55:17.685Z,20.40
2022-09-10T12:00:21.132Z,21.60
2022-09-10T12:05:39.386Z,21.70
2022-09-10T12:11:01.965Z,21.40
2022-09-10T12:16:22.718Z,22.10
2022-09-10T12:21:49.326Z,21.60
2022-09-10T12:26:53.095Z,24.30
2022-09-10T12:32:22.265Z,25.30
2022-09-10T12:37:28.925Z,24.60
2022-09-10T12:42:34.625Z,23.10
2022-09-10T12:47:45.177Z,22.00
2022-09-10T12:52:53.654Z,22.10
2022-09-10T12:58:26.054Z,23.30
2022-09-10T13:03:30.564Z,22.00
2022-09-10T13:08:41.745Z,22.10
2022-09-10T13:14:22.619Z,22.20
2022-09-10T13:19:25.375Z,22.50
2022-09-10T13:24:34.646Z,24.10
2022-09-10T13:30:06.685Z,23.90
2022-09-10T13:35:21.457Z,22.90
2022-09-10T13:41:02.875Z,22.20
2022-09-10T13:46:12.695Z,22.10
2022-09-10T13:51:32.658Z,22.40
2022-09-10T13:56:36.507Z,22.30
2022-09-10T14:01:54.072Z,23.70
2022-09-10T14:07:25.765Z,22.50
2022-09-10T14:12:34.676Z,22.00
2022-09-10T14:17:51.247Z,21.80
2022-09-10T14:23:15.444Z,21.50
2022-09-10T14:28:26.626Z,22.60
2022-09-10T14:33:34.324Z,23.40
2022-09-10T14:38:39.714Z,22.60
2022-09-10T14:43:42.815Z,23.40
2022-09-10T14:49:11.515Z,22.80
2022-09-10T14:54:15.195Z,22.30
2022-09-10T14:59:23.479Z,22.20
2022-09-10T15:04:27.948Z,22.20
2022-09-10T15:09:32.794Z,21.50
2022-09-10T15:14:36.921Z,20.90
2022-09-10T15:19:40.376Z,20.60
2022-09-10T15:25:07.961Z,20.90
2022-09-10T15:30:06.998Z,21.00
2022-09-10T15:35:10.030Z,21.10
2022-09-10T15:40:12.954Z,20.60
2022-09-10T15:45:15.860Z,20.60
2022-09-10T15:50:18.807Z,20.50
2022-09-10T15:55:21.969Z,20.10
2022-09-10T16:00:25.126Z,19.60
2022-09-10T16:05:28.873Z,19.10
2022-09-10T16:10:33.545Z,19.00
2022-09-10T16:15:38.187Z,18.80
2022-09-10T16:20:41.070Z,18.70
2022-09-10T16:25:55.054Z,18.60
2022-09-10T16:30:59.436Z,18.50
2022-09-10T16:36:06.506Z,18.30
2022-09-10T16:41:14.075Z,18.30
2022-09-10T16:46:20.429Z,18.00
2022-09-10T16:51:25.177Z,17.80
2022-09-10T16:56:28.467Z,17.60
2022-09-10T17:01:31.469Z,17.60
2022-09-10T17:06:35.406Z,17.40
2022-09-10T17:11:38.528Z,17.20
2022-09-10T17:16:43.698Z,17.00
2022-09-10T17:21:51.457Z,16.80
2022-09-10T17:26:58.077Z,16.70
2022-09-10T17:32:00.827Z,16.50
2022-09-10T17:37:03.647Z,16.40
2022-09-10T17:42:06.477Z,16.30
2022-09-10T17:47:09.958Z,16.10
2022-09-10T17:52:14.839Z,15.90
2022-09-10T17:57:18.977Z,16.00
2022-09-10T18:02:21.710Z,16.20
2022-09-10T18:07:24.487Z,16.10
2022-09-10T18:12:27.267Z,15.80
2022-09-10T18:17:30.167Z,15.70
2022-09-10T18:22:33.337Z,15.50
2022-09-10T18:27:36.277Z,15.40
2022-09-10T18:32:39.097Z,15.30
2022-09-10T18:37:41.807Z,15.10
2022-09-10T18:42:46.735Z,14.90
2022-09-10T18:47:50.096Z,14.60
2022-09-10T18:52:53.796Z,14.40
2022-09-10T18:57:58.007Z,13.90
2022-09-10T19:03:00.877Z,13.70
2022-09-10T19:08:03.646Z,13.50
2022-09-10T19:13:07.776Z,13.40
2022-09-10T19:18:10.598Z,13.20
2022-09-10T19:23:13.470Z,13.30
2022-09-10T19:28:16.547Z,13.10
2022-09-10T19:33:21.215Z,13.20
2022-09-10T19:38:37.165Z,13.10
2022-09-10T19:43:41.646Z,12.90
2022-09-10T19:48:46.878Z,13.00
2022-09-10T19:53:49.813Z,13.00
2022-09-10T19:58:55.874Z,13.10
2022-09-10T20:04:01.294Z,13.30
2022-09-10T20:09:07.135Z,13.30
2022-09-10T20:14:13.552Z,13.50
2022-09-10T20:19:18.759Z,13.70
2022-09-10T20:24:22.422Z,13.80
2022-09-10T20:29:25.821Z,13.90
2022-09-10T20:34:28.604Z,14.00
2022-09-10T20:39:32.163Z,14.10
2022-09-10T20:44:34.924Z,14.10
2022-09-10T20:49:38.185Z,14.10
2022-09-10T20:54:41.001Z,14.10
2022-09-10T20:59:44.419Z,14.10
2022-09-10T21:04:47.198Z,14.10
2022-09-10T21:09:50.095Z,14.10
2022-09-10T21:14:52.820Z,14.10
2022-09-10T21:19:55.477Z,13.90
2022-09-10T21:24:58.116Z,13.80
2022-09-10T21:30:01.087Z,13.60
2022-09-10T21:35:03.927Z,13.40
2022-09-10T21:40:07.796Z,13.40
2022-09-10T21:45:11.485Z,13.40
2022-09-10T21:50:14.213Z,13.50
2022-09-10T21:55:16.971Z,13.50
2022-09-10T22:00:19.608Z,13.50
2022-09-10T22:05:22.267Z,13.50
2022-09-10T22:10:26.785Z,13.50
2022-09-10T22:15:29.435Z,13.60
2022-09-10T22:20:33.772Z,13.60
2022-09-10T22:25:36.375Z,13.50
2022-09-10T22:30:39.006Z,13.30
2022-09-10T22:35:41.756Z,13.10
2022-09-10T22:40:44.456Z,12.90
2022-09-10T22:45:47.350Z,12.70
2022-09-10T22:50:50.111Z,12.60
2022-09-10T22:55:54.031Z,12.50
2022-09-10T23:00:57.164Z,12.40
2022-09-10T23:06:08.732Z,12.30
2022-09-10T23:11:26.506Z,12.30
2022-09-10T23:16:32.041Z,12.30
2022-09-10T23:21:35.946Z,12.30
2022-09-10T23:26:38.965Z,12.20
2022-09-10T23:31:41.614Z,12.20
2022-09-10T23:36:46.619Z,12.10
2022-09-10T23:41:50.597Z,12.10
2022-09-10T23:46:53.964Z,12.10
2022-09-10T23:51:56.752Z,12.10
2022-09-10T23:57:00.122Z,11.90
